Time;durP1;ratioP1;P1;durP2;ratioP2;P2;SDS_P1;SDS_P2;PMS_P1;PMS_P2;Temp;Humidity;BMP_temperature;BMP_pressure;BME280_temperature;BME280_humidity;BME280_pressure;Samples;Min_cycle;Max_cycle;Signal;HPM_P1;HPM_P2
2022/08/02 00:00:24;;;;;;;2.40;1.60;;;19.90;99.90;;;;;;4196747;28;20646;-78
2022/08/02 00:02:26;;;;;;;3.87;1.40;;;19.90;99.90;;;;;;4194744;28;20564;-78
2022/08/02 00:04:28;;;;;;;2.80;1.77;;;19.90;99.90;;;;;;4178819;28;20218;-78
2022/08/02 00:06:30;;;;;;;2.80;1.50;;;19.80;99.90;;;;;;4175820;28;20218;-78
2022/08/02 00:08:32;;;;;;;2.27;1.33;;;19.80;99.90;;;;;;4191169;28;20284;-79
2022/08/02 00:10:34;;;;;;;2.60;1.47;;;19.80;99.90;;;;;;4196559;28;20818;-78
2022/08/02 00:12:37;;;;;;;5.00;1.73;;;19.80;99.90;;;;;;4196475;28;20238;-78
2022/08/02 00:14:39;;;;;;;2.00;1.40;;;19.70;99.90;;;;;;4196731;28;20209;-77
2022/08/02 00:16:41;;;;;;;2.80;1.77;;;19.70;99.90;;;;;;4196468;28;20212;-78
2022/08/02 00:18:43;;;;;;;3.13;1.80;;;19.70;99.90;;;;;;4196447;28;20234;-78
2022/08/02 00:20:45;;;;;;;2.53;1.70;;;19.70;99.90;;;;;;4193919;28;20217;-78
2022/08/02 00:22:47;;;;;;;3.77;1.90;;;19.70;99.90;;;;;;4178294;28;20228;-76
2022/08/02 00:24:49;;;;;;;2.10;1.90;;;19.70;99.90;;;;;;4194054;28;20215;-75
2022/08/02 00:26:51;;;;;;;4.63;1.70;;;19.60;99.90;;;;;;4197138;28;20324;-76
2022/08/02 00:28:54;;;;;;;1.60;1.43;;;19.60;99.90;;;;;;4175693;28;20201;-76
2022/08/02 00:30:57;;;;;;;3.43;1.80;;;19.60;99.90;;;;;;4196407;28;20212;-76
2022/08/02 00:32:59;;;;;;;2.20;1.60;;;19.60;99.90;;;;;;4195884;28;20675;-76
2022/08/02 00:35:00;;;;;;;3.10;1.80;;;19.60;99.90;;;;;;4195729;28;20217;-76
2022/08/02 00:37:02;;;;;;;2.97;1.77;;;19.50;99.90;;;;;;4195427;28;20335;-77
2022/08/02 00:39:04;;;;;;;3.30;1.80;;;19.50;99.90;;;;;;4193875;28;20249;-76
2022/08/02 00:41:12;;;;;;;3.37;1.97;;;19.50;99.90;;;;;;4195557;28;20254;-77
2022/08/02 00:43:14;;;;;;;3.03;1.80;;;19.50;99.90;;;;;;4178287;28;20707;-76
2022/08/02 00:45:17;;;;;;;2.30;1.67;;;19.40;99.90;;;;;;4195724;28;20295;-76
2022/08/02 00:47:19;;;;;;;2.20;1.60;;;19.40;99.90;;;;;;4195875;28;20327;-77
2022/08/02 00:49:21;;;;;;;3.30;1.70;;;19.40;99.90;;;;;;4195717;28;20316;-76
2022/08/02 00:51:23;;;;;;;3.20;1.80;;;19.40;99.90;;;;;;4195987;28;20211;-76
2022/08/02 00:53:25;;;;;;;3.47;1.60;;;19.40;99.90;;;;;;4195679;28;20208;-78
2022/08/02 00:55:27;;;;;;;6.20;1.90;;;19.40;99.90;;;;;;4195430;28;20220;-76
2022/08/02 00:57:29;;;;;;;2.40;1.60;;;19.40;99.90;;;;;;4195766;28;20325;-76
2022/08/02 00:59:31;;;;;;;3.27;1.90;;;19.40;99.90;;;;;;4222085;22;20239;-77
2022/08/02 01:01:40;;;;;;;2.60;1.60;;;19.40;99.90;;;;;;4203962;28;20676;-78
2022/08/02 01:03:43;;;;;;;2.23;1.67;;;19.40;99.90;;;;;;4204088;28;20217;-78
2022/08/02 01:05:45;;;;;;;3.30;2.20;;;19.30;99.90;;;;;;4202244;28;20222;-78
2022/08/02 01:07:47;;;;;;;5.13;2.53;;;19.30;99.90;;;;;;4186438;28;20295;-78
2022/08/02 01:09:49;;;;;;;2.43;1.40;;;19.30;99.90;;;;;;4198463;28;20816;-78
2022/08/02 01:11:51;;;;;;;3.53;1.70;;;19.30;99.90;;;;;;4193921;28;20211;-78
2022/08/02 01:13:53;;;;;;;2.13;1.60;;;19.30;99.90;;;;;;4195175;28;20227;-78
2022/08/02 01:16:01;;;;;;;2.93;1.80;;;19.30;99.90;;;;;;4170676;28;20643;-78
2022/08/02 01:18:12;;;;;;;2.50;1.53;;;19.30;99.90;;;;;;4193160;28;20240;-78
2022/08/02 01:20:36;;;;;;;2.27;1.50;;;19.30;99.90;;;;;;4194009;28;20217;-78
2022/08/02 01:22:57;;;;;;;2.87;1.57;;;19.30;99.90;;;;;;4191976;28;20206;-78
2022/08/02 01:25:21;;;;;;;1.93;1.63;;;19.30;99.90;;;;;;4193993;28;20760;-78
2022/08/02 01:27:37;;;;;;;3.73;1.60;;;19.30;99.90;;;;;;4195017;28;20242;-78
2022/08/02 01:29:45;;;;;;;1.50;1.40;;;19.20;99.90;;;;;;4194488;28;20284;-79
2022/08/02 01:31:50;;;;;;;3.07;1.50;;;19.20;99.90;;;;;;4194613;28;20265;-78
2022/08/02 01:34:01;;;;;;;3.90;1.60;;;19.20;99.90;;;;;;4194171;28;20323;-78
2022/08/02 01:36:04;;;;;;;1.40;1.30;;;19.10;99.90;;;;;;4174996;28;20223;-78
2022/08/02 01:38:14;;;;;;;3.17;1.50;;;19.10;99.90;;;;;;4196877;28;20212;-79
2022/08/02 01:40:22;;;;;;;2.33;1.70;;;19.10;99.90;;;;;;4196403;28;20223;-79
2022/08/02 01:42:27;;;;;;;2.50;1.63;;;19.10;99.90;;;;;;4197382;28;20215;-79
2022/08/02 01:44:32;;;;;;;2.10;1.70;;;19.10;99.90;;;;;;4197155;28;20216;-79
2022/08/02 01:46:41;;;;;;;2.80;1.77;;;19.00;99.90;;;;;;4168537;28;20279;-78
2022/08/02 01:48:45;;;;;;;2.83;1.63;;;19.00;99.90;;;;;;4165544;28;20206;-78
2022/08/02 01:50:49;;;;;;;2.87;1.70;;;19.00;99.90;;;;;;4193909;28;20231;-78
2022/08/02 01:52:53;;;;;;;1.93;1.63;;;19.00;99.90;;;;;;4177294;28;20647;-78
2022/08/02 01:55:01;;;;;;;2.43;1.67;;;19.00;99.90;;;;;;4204861;28;20268;-78
2022/08/02 01:57:06;;;;;;;4.10;1.70;;;19.00;99.90;;;;;;4206405;28;20217;-78
2022/08/02 01:59:12;;;;;;;2.30;1.70;;;18.90;99.90;;;;;;4203737;28;20262;-79
2022/08/02 02:01:15;;;;;;;2.87;1.90;;;18.90;99.90;;;;;;4207227;28;20230;-78
2022/08/02 02:03:22;;;;;;;4.43;1.53;;;18.90;99.90;;;;;;4189787;28;20261;-78
2022/08/02 02:05:27;;;;;;;3.07;1.60;;;18.90;99.90;;;;;;4185294;28;20213;-77
2022/08/02 02:07:31;;;;;;;2.07;1.70;;;18.80;99.90;;;;;;4194599;28;20211;-78
2022/08/02 02:09:37;;;;;;;2.67;1.50;;;18.80;99.90;;;;;;4178190;28;20913;-77
2022/08/02 02:11:41;;;;;;;5.77;1.90;;;18.80;99.90;;;;;;4198356;28;20260;-78
2022/08/02 02:13:43;;;;;;;2.03;1.60;;;18.80;99.90;;;;;;4198240;28;20708;-78
2022/08/02 02:15:49;;;;;;;2.00;1.63;;;18.80;99.90;;;;;;4197380;28;20212;-77
2022/08/02 02:17:52;;;;;;;2.50;1.70;;;18.80;99.90;;;;;;4197715;28;21110;-77
2022/08/02 02:20:00;;;;;;;3.67;1.60;;;18.70;99.90;;;;;;4197841;28;20944;-78
2022/08/02 02:22:02;;;;;;;3.47;1.53;;;18.70;99.90;;;;;;4200250;28;20218;-78
2022/08/02 02:24:05;;;;;;;3.63;1.50;;;18.70;99.90;;;;;;4184991;28;20222;-77
2022/08/02 02:26:10;;;;;;;3.40;1.70;;;18.70;99.90;;;;;;4205421;28;20215;-78
2022/08/02 02:28:15;;;;;;;4.07;1.73;;;18.70;99.90;;;;;;4206500;28;20293;-78
2022/08/02 02:30:17;;;;;;;2.67;1.70;;;18.60;99.90;;;;;;4174402;28;20238;-78
2022/08/02 02:32:23;;;;;;;3.63;1.63;;;18.60;99.90;;;;;;4180280;28;20215;-78
2022/08/02 02:34:28;;;;;;;2.30;1.37;;;18.60;99.90;;;;;;4196292;28;20276;-78
2022/08/02 02:36:34;;;;;;;2.43;1.60;;;18.60;99.90;;;;;;4179433;28;20613;-78
2022/08/02 02:38:37;;;;;;;3.07;1.83;;;18.50;99.90;;;;;;4196533;28;20674;-78
2022/08/02 02:40:41;;;;;;;2.13;1.47;;;18.50;99.90;;;;;;4197677;28;20711;-79
2022/08/02 02:42:45;;;;;;;3.73;1.90;;;18.50;99.90;;;;;;4196983;28;20230;-78
2022/08/02 02:44:48;;;;;;;1.70;1.37;;;18.40;99.90;;;;;;4194853;28;20198;-78
2022/08/02 02:46:53;;;;;;;3.00;1.70;;;18.40;99.90;;;;;;4195623;28;20202;-77
2022/08/02 02:48:55;;;;;;;2.93;1.50;;;18.40;99.90;;;;;;4196224;28;20765;-78
2022/08/02 02:50:58;;;;;;;2.67;1.60;;;18.30;99.90;;;;;;4197017;28;20767;-78
2022/08/02 02:53:02;;;;;;;2.20;1.43;;;18.30;99.90;;;;;;4179063;28;20218;-78
2022/08/02 02:55:06;;;;;;;3.97;1.50;;;18.30;99.90;;;;;;4196246;28;20294;-77
2022/08/02 02:57:08;;;;;;;2.63;1.60;;;18.30;99.90;;;;;;4177350;28;20755;-78
2022/08/02 02:59:13;;;;;;;2.50;1.43;;;18.20;99.90;;;;;;4197172;28;20718;-78
2022/08/02 03:01:29;;;;;;;2.60;1.40;;;18.20;99.90;;;;;;4173009;28;20203;-78
2022/08/02 03:03:32;;;;;;;2.63;1.77;;;18.20;99.90;;;;;;4195695;28;20612;-77
2022/08/02 03:05:34;;;;;;;3.77;1.80;;;18.20;99.90;;;;;;4194555;28;20206;-78
2022/08/02 03:07:37;;;;;;;2.07;1.50;;;18.20;99.90;;;;;;4197220;28;20221;-78
2022/08/02 03:09:40;;;;;;;2.67;1.53;;;18.20;99.90;;;;;;4172249;28;20262;-78
2022/08/02 03:11:43;;;;;;;5.07;1.97;;;18.20;99.90;;;;;;4196256;28;20620;-78
2022/08/02 03:13:45;;;;;;;3.30;1.63;;;18.20;99.90;;;;;;4195525;28;20998;-78
2022/08/02 03:15:52;;;;;;;2.67;1.40;;;18.10;99.90;;;;;;4196702;28;20210;-78
2022/08/02 03:17:54;;;;;;;3.03;1.60;;;18.20;99.90;;;;;;4196234;28;20753;-79
2022/08/02 03:19:56;;;;;;;3.67;1.67;;;18.20;99.90;;;;;;4162366;28;20739;-78
2022/08/02 03:21:58;;;;;;;4.03;1.67;;;18.10;99.90;;;;;;4195549;28;20220;-78
2022/08/02 03:24:00;;;;;;;3.20;1.80;;;18.10;99.90;;;;;;4196585;28;20687;-78
2022/08/02 03:26:05;;;;;;;2.90;1.50;;;18.10;99.90;;;;;;4196107;28;20280;-78
2022/08/02 03:28:07;;;;;;;4.43;1.70;;;18.10;99.90;;;;;;4169961;28;20215;-78
2022/08/02 03:30:11;;;;;;;3.13;1.60;;;18.10;99.90;;;;;;4178850;28;20227;-78
2022/08/02 03:32:13;;;;;;;3.47;1.67;;;18.00;99.90;;;;;;4197620;28;20595;-78
2022/08/02 03:34:15;;;;;;;2.20;1.37;;;18.00;99.90;;;;;;4196201;28;20230;-77
2022/08/02 03:36:19;;;;;;;5.43;1.90;;;18.00;99.90;;;;;;4196304;28;20570;-78
2022/08/02 03:38:23;;;;;;;2.77;1.77;;;18.00;99.90;;;;;;4197103;28;20688;-77
2022/08/02 03:40:26;;;;;;;3.33;1.90;;;18.00;99.90;;;;;;4199427;28;20321;-77
2022/08/02 03:42:31;;;;;;;4.40;1.70;;;17.90;99.90;;;;;;4199863;28;20210;-77
2022/08/02 03:44:33;;;;;;;3.27;1.63;;;17.90;99.90;;;;;;4197705;28;20235;-77
2022/08/02 03:46:38;;;;;;;4.97;1.83;;;17.90;99.90;;;;;;4196760;28;20213;-77
2022/08/02 03:48:41;;;;;;;5.93;1.90;;;17.90;99.90;;;;;;4171894;28;20374;-77
2022/08/02 03:50:45;;;;;;;2.93;1.60;;;17.90;99.90;;;;;;4177905;28;20334;-77
2022/08/02 03:52:48;;;;;;;5.13;1.63;;;17.90;99.90;;;;;;4197042;28;20206;-77
2022/08/02 03:54:50;;;;;;;3.13;1.90;;;17.90;99.90;;;;;;4170999;28;20297;-77
2022/08/02 03:56:53;;;;;;;4.20;1.87;;;17.90;99.90;;;;;;4198854;28;20939;-77
2022/08/02 03:59:07;;;;;;;4.80;1.70;;;17.80;99.90;;;;;;4200121;28;20237;-77
2022/08/02 04:01:10;;;;;;;4.10;1.80;;;17.80;99.90;;;;;;4200939;28;20585;-79
2022/08/02 04:03:11;;;;;;;4.80;1.60;;;17.80;99.90;;;;;;4186306;28;20757;-77
2022/08/02 04:05:14;;;;;;;4.07;2.00;;;17.80;99.90;;;;;;4186226;28;20241;-77
2022/08/02 04:07:16;;;;;;;3.20;1.80;;;17.80;99.90;;;;;;4205650;28;20229;-77
2022/08/02 04:09:18;;;;;;;5.83;2.20;;;17.80;99.90;;;;;;4181177;28;20265;-77
2022/08/02 04:11:32;;;;;;;5.53;1.90;;;17.80;99.90;;;;;;4206001;28;20244;-77
2022/08/02 04:13:35;;;;;;;4.30;2.10;;;17.80;99.90;;;;;;4201506;28;20201;-78
2022/08/02 04:15:39;;;;;;;5.53;2.00;;;17.70;99.90;;;;;;4198251;28;20209;-78
2022/08/02 04:17:45;;;;;;;3.77;1.80;;;17.70;99.90;;;;;;4193958;28;20221;-77
2022/08/02 04:19:52;;;;;;;3.33;1.90;;;17.70;99.90;;;;;;4177883;28;20723;-78
2022/08/02 04:21:54;;;;;;;4.17;1.70;;;17.70;99.90;;;;;;4195691;28;20212;-77
2022/08/02 04:23:57;;;;;;;2.90;1.60;;;17.70;99.90;;;;;;4172594;28;20214;-78
2022/08/02 04:26:00;;;;;;;5.47;2.03;;;17.70;99.90;;;;;;4177925;28;20709;-78
2022/08/02 04:28:03;;;;;;;2.90;1.70;;;17.70;99.90;;;;;;4168612;28;20222;-78
2022/08/02 04:30:06;;;;;;;3.83;1.80;;;17.60;99.90;;;;;;4177079;28;20253;-78
2022/08/02 04:32:09;;;;;;;2.93;1.77;;;17.60;99.90;;;;;;4195711;28;20241;-78
2022/08/02 04:34:12;;;;;;;4.73;1.87;;;17.60;99.90;;;;;;4193794;28;20297;-77
2022/08/02 04:36:14;;;;;;;6.07;1.87;;;17.60;99.90;;;;;;4194904;28;20208;-78
2022/08/02 04:38:18;;;;;;;3.50;2.00;;;17.60;99.90;;;;;;4192734;28;20305;-79
2022/08/02 04:40:20;;;;;;;3.60;1.87;;;17.60;99.90;;;;;;4166181;28;20314;-77
2022/08/02 04:42:23;;;;;;;3.93;1.90;;;17.60;99.90;;;;;;4195421;28;20248;-77
2022/08/02 04:44:25;;;;;;;4.53;1.80;;;17.60;99.90;;;;;;4195017;28;20206;-78
2022/08/02 04:46:27;;;;;;;4.43;1.87;;;17.60;99.90;;;;;;4195420;28;20592;-78
2022/08/02 04:48:30;;;;;;;3.00;1.50;;;17.60;99.90;;;;;;4195572;28;20297;-78
2022/08/02 04:50:33;;;;;;;4.50;1.70;;;17.60;99.90;;;;;;4195638;28;20253;-78
2022/08/02 04:52:34;;;;;;;5.73;1.73;;;17.60;99.90;;;;;;4168931;28;20274;-78
2022/08/02 04:54:37;;;;;;;3.73;1.60;;;17.60;99.90;;;;;;4175101;28;20220;-77
2022/08/02 04:56:39;;;;;;;3.27;1.70;;;17.60;99.90;;;;;;4188046;28;20240;-78
2022/08/02 04:58:41;;;;;;;1.73;1.63;;;17.60;99.90;;;;;;4177587;28;20305;-78
2022/08/02 05:00:43;;;;;;;3.93;2.10;;;17.60;99.90;;;;;;4196249;28;20210;-76
2022/08/02 05:02:45;;;;;;;3.83;1.83;;;17.60;99.90;;;;;;4199264;28;20210;-78
2022/08/02 05:04:50;;;;;;;3.17;1.87;;;17.60;99.90;;;;;;4199417;28;20206;-78
2022/08/02 05:06:52;;;;;;;1.57;1.47;;;17.70;99.90;;;;;;4182460;28;20258;-78
2022/08/02 05:08:54;;;;;;;2.70;1.80;;;17.70;99.90;;;;;;4185923;28;20250;-78
2022/08/02 05:10:56;;;;;;;2.40;1.80;;;17.70;99.90;;;;;;4191875;28;20235;-79
2022/08/02 05:12:58;;;;;;;2.20;1.40;;;17.70;99.90;;;;;;4208746;28;20229;-78
2022/08/02 05:15:00;;;;;;;3.83;2.13;;;17.70;99.90;;;;;;4204441;28;20209;-78
2022/08/02 05:17:02;;;;;;;3.27;1.70;;;17.80;99.90;;;;;;4207427;28;20216;-78
2022/08/02 05:19:03;;;;;;;3.80;1.70;;;17.80;99.90;;;;;;4208751;28;20922;-78
2022/08/02 05:21:07;;;;;;;2.83;1.70;;;17.80;99.90;;;;;;4208021;28;20640;-78
2022/08/02 05:23:09;;;;;;;2.47;1.57;;;17.80;99.90;;;;;;4207278;28;20205;-78
2022/08/02 05:25:11;;;;;;;3.47;1.40;;;17.90;99.90;;;;;;4201361;28;20225;-78
2022/08/02 05:27:13;;;;;;;2.80;1.57;;;17.90;99.90;;;;;;4204415;28;20198;-78
2022/08/02 05:29:15;;;;;;;2.60;1.47;;;18.00;99.90;;;;;;4178341;28;20383;-78
2022/08/02 05:31:17;;;;;;;2.67;1.40;;;18.00;99.90;;;;;;4204545;28;20219;-78
2022/08/02 05:33:19;;;;;;;2.83;1.40;;;18.00;99.90;;;;;;4179027;28;20294;-78
2022/08/02 05:35:23;;;;;;;2.50;1.23;;;18.10;99.90;;;;;;4201959;28;20229;-78
2022/08/02 05:37:26;;;;;;;2.10;1.30;;;18.10;99.90;;;;;;4199284;28;20211;-78
2022/08/02 05:39:28;;;;;;;2.67;1.23;;;18.10;99.90;;;;;;4198529;28;20323;-79
2022/08/02 05:41:30;;;;;;;2.03;1.30;;;18.20;99.90;;;;;;4198432;28;20245;-78
2022/08/02 05:43:32;;;;;;;1.83;1.30;;;18.20;99.90;;;;;;4199856;28;20274;-78
2022/08/02 05:45:35;;;;;;;2.47;1.40;;;18.20;99.90;;;;;;4197291;28;20206;-78
2022/08/02 05:47:37;;;;;;;4.10;1.47;;;18.20;99.90;;;;;;4170985;28;20212;-78
2022/08/02 05:49:39;;;;;;;2.97;1.30;;;18.30;99.90;;;;;;4202626;28;20298;-77
2022/08/02 05:51:52;;;;;;;2.80;1.30;;;18.40;99.90;;;;;;4203553;28;20229;-78
2022/08/02 05:54:02;;;;;;;3.83;1.90;;;18.40;99.90;;;;;;4203308;28;20245;-77
2022/08/02 05:56:18;;;;;;;2.77;1.60;;;18.40;99.90;;;;;;4197595;28;20237;-78
2022/08/02 05:58:27;;;;;;;3.03;1.20;;;18.40;99.90;;;;;;4195088;28;20287;-78
2022/08/02 06:00:31;;;;;;;3.03;1.70;;;18.40;99.90;;;;;;4193433;28;20234;-78
2022/08/02 06:02:44;;;;;;;1.43;1.20;;;18.50;99.90;;;;;;4194453;28;20249;-78
2022/08/02 06:04:54;;;;;;;3.17;1.63;;;18.50;99.90;;;;;;4192439;28;20209;-78
2022/08/02 06:07:01;;;;;;;3.20;1.40;;;18.50;99.90;;;;;;4194341;28;20244;-78
2022/08/02 06:09:09;;;;;;;2.97;1.60;;;18.50;99.90;;;;;;4194423;28;20232;-78
2022/08/02 06:11:14;;;;;;;3.97;1.83;;;18.50;99.90;;;;;;4192842;28;20304;-78
2022/08/02 06:13:16;;;;;;;4.30;1.50;;;18.50;99.90;;;;;;4193966;28;20248;-78
2022/08/02 06:15:19;;;;;;;4.50;1.63;;;18.50;99.90;;;;;;4167418;28;20204;-78
2022/08/02 06:17:24;;;;;;;2.73;1.30;;;18.50;99.90;;;;;;4194117;28;20209;-78
2022/08/02 06:19:26;;;;;;;3.13;1.40;;;18.50;99.90;;;;;;4193446;28;20324;-77
2022/08/02 06:21:29;;;;;;;4.47;1.80;;;18.60;99.90;;;;;;4194547;28;20287;-78
2022/08/02 06:23:32;;;;;;;1.90;1.50;;;18.60;99.90;;;;;;4170201;28;20230;-77
2022/08/02 06:25:39;;;;;;;2.47;1.80;;;18.60;99.90;;;;;;4176227;28;20216;-78
2022/08/02 06:27:41;;;;;;;2.77;1.40;;;18.70;99.90;;;;;;4193711;28;20292;-76
2022/08/02 06:29:45;;;;;;;3.57;1.60;;;18.70;99.90;;;;;;4192495;28;20229;-78
2022/08/02 06:31:48;;;;;;;3.97;1.60;;;18.70;99.90;;;;;;4194491;28;20254;-77
2022/08/02 06:33:50;;;;;;;2.53;1.70;;;18.80;99.90;;;;;;4200823;28;20243;-78
2022/08/02 06:36:01;;;;;;;4.10;1.50;;;18.80;99.90;;;;;;4198027;28;20218;-78
2022/08/02 06:38:04;;;;;;;4.53;1.43;;;18.80;99.90;;;;;;4194406;28;20222;-78
2022/08/02 06:40:14;;;;;;;2.47;1.33;;;18.90;99.90;;;;;;4193929;28;20232;-78
2022/08/02 06:42:24;;;;;;;1.93;1.40;;;18.90;99.90;;;;;;4194277;28;20323;-78
2022/08/02 06:44:26;;;;;;;2.40;1.50;;;19.00;99.90;;;;;;4192646;28;20216;-78
2022/08/02 06:46:28;;;;;;;2.37;1.50;;;19.10;99.90;;;;;;4192361;28;20213;-78
2022/08/02 06:48:34;;;;;;;1.80;1.50;;;19.10;99.90;;;;;;4194164;28;20204;-78
2022/08/02 06:50:37;;;;;;;1.90;1.50;;;19.20;99.90;;;;;;4194171;28;20215;-78
2022/08/02 06:52:40;;;;;;;2.07;1.10;;;19.20;99.90;;;;;;4193325;28;20315;-78
2022/08/02 06:54:41;;;;;;;2.53;1.43;;;19.30;99.90;;;;;;4193931;28;20207;-78
2022/08/02 06:56:44;;;;;;;1.93;1.30;;;19.30;99.90;;;;;;4193390;28;20668;-78
2022/08/02 06:58:47;;;;;;;1.77;1.20;;;19.30;99.90;;;;;;4170943;28;20227;-78
2022/08/02 07:00:50;;;;;;;1.70;1.13;;;19.40;99.90;;;;;;4186826;22;20259;-79
2022/08/02 07:02:52;;;;;;;2.40;1.40;;;19.40;99.90;;;;;;4143924;28;20574;-79
2022/08/02 07:04:55;;;;;;;2.80;1.40;;;19.40;99.90;;;;;;4141209;28;20743;-79
2022/08/02 07:06:56;;;;;;;2.03;1.50;;;19.40;99.90;;;;;;4140903;28;20215;-77
2022/08/02 07:08:58;;;;;;;2.87;1.40;;;19.40;99.90;;;;;;4121129;28;20324;-77
2022/08/02 07:11:00;;;;;;;2.53;1.50;;;19.50;99.90;;;;;;4142276;28;20232;-77
2022/08/02 07:13:02;;;;;;;3.23;1.70;;;19.50;99.90;;;;;;4138150;28;20955;-79
2022/08/02 07:15:08;;;;;;;3.03;1.60;;;19.50;99.90;;;;;;4139821;28;20221;-79
2022/08/02 07:17:10;;;;;;;2.83;1.60;;;19.50;99.90;;;;;;4143298;28;20622;-76
2022/08/02 07:19:12;;;;;;;4.17;1.60;;;19.60;99.90;;;;;;4118073;28;20220;-79
2022/08/02 07:21:14;;;;;;;4.87;1.63;;;19.60;99.90;;;;;;4125630;28;20256;-79
2022/08/02 07:23:16;;;;;;;1.70;1.30;;;19.70;99.90;;;;;;4127255;28;20661;-79
2022/08/02 07:25:18;;;;;;;1.80;1.50;;;19.80;99.90;;;;;;4143088;28;20665;-79
2022/08/02 07:27:20;;;;;;;2.27;1.33;;;19.90;99.90;;;;;;4139800;28;20584;-79
2022/08/02 07:29:22;;;;;;;2.60;1.30;;;19.90;99.90;;;;;;4117432;28;20209;-79
2022/08/02 07:31:25;;;;;;;3.10;1.30;;;20.00;99.90;;;;;;4139760;28;20250;-79
2022/08/02 07:33:27;;;;;;;2.67;1.30;;;20.20;99.90;;;;;;4140926;28;20212;-78
2022/08/02 07:35:29;;;;;;;2.17;1.40;;;20.20;99.90;;;;;;4119764;28;20238;-79
2022/08/02 07:37:33;;;;;;;2.47;1.30;;;20.30;99.90;;;;;;4135712;28;20272;-79
2022/08/02 07:39:35;;;;;;;2.07;1.37;;;20.40;99.90;;;;;;4138210;28;20307;-79
2022/08/02 07:41:36;;;;;;;2.80;1.60;;;20.40;99.90;;;;;;4141094;28;20233;-79
2022/08/02 07:43:38;;;;;;;2.20;1.20;;;20.50;99.90;;;;;;4142600;28;20267;-79
2022/08/02 07:45:40;;;;;;;2.53;1.30;;;20.50;99.90;;;;;;4144252;28;20242;-79
2022/08/02 07:47:45;;;;;;;1.90;1.10;;;20.60;99.90;;;;;;4140096;28;20326;-79
2022/08/02 07:49:47;;;;;;;2.17;1.50;;;20.60;99.90;;;;;;4139815;28;20243;-79
2022/08/02 07:51:49;;;;;;;2.87;1.40;;;20.60;99.90;;;;;;4143349;28;20227;-79
2022/08/02 07:53:50;;;;;;;2.17;1.30;;;20.60;99.90;;;;;;4137114;28;20213;-79
2022/08/02 07:55:52;;;;;;;2.73;1.40;;;20.60;99.90;;;;;;4120799;28;20553;-79
2022/08/02 07:57:54;;;;;;;3.37;1.40;;;20.60;99.90;;;;;;4142327;28;20291;-79
2022/08/02 07:59:56;;;;;;;2.73;1.53;;;20.60;99.90;;;;;;4124952;28;20237;-79
2022/08/02 08:01:58;;;;;;;2.53;1.30;;;20.70;99.90;;;;;;4138849;28;20276;-79
2022/08/02 08:04:01;;;;;;;1.97;1.30;;;20.70;99.90;;;;;;4122773;28;20219;-79
2022/08/02 08:06:03;;;;;;;1.80;1.27;;;20.70;99.90;;;;;;4124323;28;20218;-79
2022/08/02 08:08:05;;;;;;;3.03;1.60;;;20.70;99.90;;;;;;4143751;28;20294;-79
2022/08/02 08:10:09;;;;;;;2.17;1.23;;;20.70;99.90;;;;;;4143380;28;20222;-79
2022/08/02 08:12:11;;;;;;;3.23;1.50;;;20.70;99.90;;;;;;4122023;28;20228;-79
2022/08/02 08:14:14;;;;;;;3.50;1.73;;;20.80;99.90;;;;;;4117392;28;20906;-79
2022/08/02 08:16:16;;;;;;;2.53;1.57;;;20.80;99.90;;;;;;4137654;28;20216;-79
2022/08/02 08:18:18;;;;;;;3.83;1.60;;;20.80;99.90;;;;;;4123989;28;20241;-79
2022/08/02 08:20:21;;;;;;;2.47;1.50;;;20.90;99.90;;;;;;4139777;28;20238;-79
2022/08/02 08:22:23;;;;;;;1.70;1.33;;;20.90;99.90;;;;;;4139543;28;20295;-79
2022/08/02 08:24:25;;;;;;;3.83;1.40;;;20.90;99.90;;;;;;4141037;28;20194;-79
2022/08/02 08:26:27;;;;;;;3.13;1.63;;;20.90;99.90;;;;;;4138816;28;20285;-79
2022/08/02 08:28:29;;;;;;;5.27;1.77;;;21.00;99.60;;;;;;4124551;28;20242;-79
2022/08/02 08:30:31;;;;;;;2.23;1.37;;;21.00;99.90;;;;;;4120122;28;20237;-79
2022/08/02 08:32:33;;;;;;;3.23;1.53;;;21.00;99.30;;;;;;4140556;28;20227;-79
2022/08/02 08:34:35;;;;;;;2.13;1.37;;;21.00;99.70;;;;;;4121397;28;20235;-79
2022/08/02 08:36:38;;;;;;;2.70;1.60;;;21.10;98.70;;;;;;4144123;28;20213;-79
2022/08/02 08:38:40;;;;;;;3.87;1.50;;;21.10;97.50;;;;;;4137299;28;20204;-79
2022/08/02 08:40:43;;;;;;;2.17;1.53;;;21.20;97.90;;;;;;4137804;28;20319;-79
2022/08/02 08:42:45;;;;;;;2.37;1.43;;;21.20;98.50;;;;;;4118534;28;20216;-79
2022/08/02 08:44:47;;;;;;;3.27;1.70;;;21.20;99.00;;;;;;4139538;28;20265;-79
2022/08/02 08:46:50;;;;;;;2.27;1.30;;;21.30;98.60;;;;;;4122188;28;20306;-79
2022/08/02 08:48:53;;;;;;;3.07;1.33;;;21.30;98.20;;;;;;4142413;28;20723;-79
2022/08/02 08:51:00;;;;;;;2.37;1.33;;;21.30;98.10;;;;;;4122793;28;20271;-79
2022/08/02 08:53:05;;;;;;;2.40;1.43;;;21.40;98.90;;;;;;4141666;28;20253;-79
2022/08/02 08:55:10;;;;;;;4.30;1.73;;;21.40;99.30;;;;;;4143104;28;20242;-79
2022/08/02 08:57:12;;;;;;;2.33;1.50;;;21.50;97.80;;;;;;4124165;28;20293;-79
2022/08/02 08:59:17;;;;;;;3.27;1.60;;;21.50;97.50;;;;;;4139887;28;20302;-79
2022/08/02 09:01:20;;;;;;;3.83;1.60;;;21.60;97.50;;;;;;4143286;28;20352;-79
2022/08/02 09:03:22;;;;;;;4.13;1.80;;;21.60;98.60;;;;;;4138255;28;20209;-79
2022/08/02 09:05:24;;;;;;;3.13;1.97;;;21.60;97.60;;;;;;4137814;28;20319;-79
2022/08/02 09:07:26;;;;;;;3.83;2.00;;;21.70;98.80;;;;;;4125086;28;20217;-79
2022/08/02 09:09:29;;;;;;;3.67;1.80;;;21.80;96.90;;;;;;4123942;28;20311;-79
2022/08/02 09:11:31;;;;;;;4.30;1.53;;;21.80;96.60;;;;;;4142792;28;20599;-79
2022/08/02 09:13:33;;;;;;;3.73;1.77;;;21.80;97.20;;;;;;4125568;28;20417;-79
2022/08/02 09:15:35;;;;;;;2.10;1.50;;;21.90;97.70;;;;;;4138502;28;20261;-79
2022/08/02 09:17:50;;;;;;;2.73;1.53;;;21.90;96.70;;;;;;4122424;28;20232;-79
2022/08/02 09:20:07;;;;;;;3.03;1.60;;;22.00;95.50;;;;;;4138382;28;20672;-77
2022/08/02 09:22:11;;;;;;;3.10;1.70;;;22.00;95.80;;;;;;4139094;28;20279;-76
2022/08/02 09:24:17;;;;;;;3.57;1.60;;;22.10;94.90;;;;;;4139904;28;20653;-77
2022/08/02 09:26:23;;;;;;;3.53;1.70;;;22.10;94.30;;;;;;4139596;28;20212;-77
2022/08/02 09:28:29;;;;;;;3.10;1.60;;;22.20;94.50;;;;;;4135545;28;20270;-76
2022/08/02 09:30:32;;;;;;;3.17;1.50;;;22.30;94.10;;;;;;4120561;28;20280;-77
2022/08/02 09:32:44;;;;;;;3.17;1.97;;;22.30;93.80;;;;;;4144265;28;20232;-77
2022/08/02 09:34:48;;;;;;;2.87;1.80;;;22.40;93.50;;;;;;4133138;28;20204;-77
2022/08/02 09:36:51;;;;;;;4.20;1.80;;;22.50;93.60;;;;;;4138907;28;20228;-76
2022/08/02 09:38:55;;;;;;;2.77;1.70;;;22.50;91.10;;;;;;4126291;28;20301;-77
2022/08/02 09:40:57;;;;;;;4.13;1.67;;;22.50;91.90;;;;;;4143355;28;20321;-79
2022/08/02 09:43:00;;;;;;;3.27;2.20;;;22.60;92.00;;;;;;4125038;28;20220;-79
2022/08/02 09:45:04;;;;;;;3.03;1.90;;;22.70;90.80;;;;;;4121219;28;20296;-77
2022/08/02 09:47:15;;;;;;;2.67;1.90;;;22.70;90.30;;;;;;4138522;28;20208;-77
2022/08/02 09:49:19;;;;;;;1.97;1.60;;;22.80;90.20;;;;;;4137415;28;20206;-77
2022/08/02 09:51:25;;;;;;;5.20;2.13;;;22.80;91.40;;;;;;4140575;28;20672;-77
2022/08/02 09:53:27;;;;;;;3.13;2.30;;;22.90;90.70;;;;;;4140592;28;20464;-76
2022/08/02 09:55:29;;;;;;;3.10;2.10;;;22.90;90.90;;;;;;4143591;28;20208;-77
2022/08/02 09:57:32;;;;;;;4.13;2.30;;;23.00;90.40;;;;;;4135268;28;20218;-77
2022/08/02 09:59:36;;;;;;;5.00;2.10;;;23.10;88.60;;;;;;4141611;28;20582;-77
2022/08/02 10:01:38;;;;;;;2.57;1.90;;;23.10;88.50;;;;;;4144588;28;20221;-77
2022/08/02 10:03:55;;;;;;;4.00;2.03;;;23.20;87.30;;;;;;4132439;28;20209;-77
2022/08/02 10:05:58;;;;;;;4.70;2.27;;;23.30;87.70;;;;;;4140560;28;20885;-77
2022/08/02 10:08:00;;;;;;;3.67;2.03;;;23.30;87.10;;;;;;4133514;28;20215;-77
2022/08/02 10:10:03;;;;;;;3.43;1.93;;;23.40;85.00;;;;;;4141348;28;20268;-77
2022/08/02 10:12:06;;;;;;;3.90;2.03;;;23.50;83.00;;;;;;4122210;28;20212;-77
2022/08/02 10:14:09;;;;;;;3.37;2.00;;;23.50;82.50;;;;;;4136266;28;20598;-80
2022/08/02 10:16:15;;;;;;;4.57;2.00;;;23.60;81.30;;;;;;4142395;28;20285;-80
2022/08/02 10:18:17;;;;;;;5.37;2.20;;;23.70;82.60;;;;;;4117640;28;20212;-77
2022/08/02 10:20:19;;;;;;;3.43;2.03;;;23.80;80.00;;;;;;4135589;28;20242;-77
2022/08/02 10:22:21;;;;;;;4.50;2.20;;;23.80;79.90;;;;;;4136769;28;20210;-79
2022/08/02 10:24:28;;;;;;;4.17;2.37;;;23.90;80.70;;;;;;4122756;28;20224;-80
2022/08/02 10:26:31;;;;;;;3.90;2.00;;;24.00;78.30;;;;;;4136824;28;20318;-80
2022/08/02 10:28:33;;;;;;;3.67;2.00;;;24.00;75.90;;;;;;4137631;28;20250;-78
2022/08/02 10:30:38;;;;;;;7.30;2.53;;;24.10;72.70;;;;;;4140778;28;20227;-78
2022/08/02 10:32:45;;;;;;;3.23;2.27;;;24.10;72.10;;;;;;4122987;28;20230;-77
2022/08/02 10:34:51;;;;;;;3.27;1.80;;;24.30;73.20;;;;;;4119905;28;20662;-77
2022/08/02 10:36:54;;;;;;;4.37;2.20;;;24.30;73.50;;;;;;4123958;28;20311;-78
2022/08/02 10:38:57;;;;;;;3.17;1.87;;;24.40;72.40;;;;;;4123174;28;20243;-78
2022/08/02 10:40:59;;;;;;;3.07;2.27;;;24.50;75.20;;;;;;4143250;28;20296;-78
2022/08/02 10:43:01;;;;;;;3.97;2.07;;;24.50;73.00;;;;;;4126162;28;20608;-78
2022/08/02 10:45:09;;;;;;;3.10;2.07;;;24.60;71.30;;;;;;4144225;28;20220;-78